createdAt,value
2023-02-06T00:00:12.735Z,27.97
2023-02-06T00:02:41.844Z,25.77
2023-02-06T00:05:11.395Z,25.03
2023-02-06T00:07:40.520Z,27.07
2023-02-06T00:10:10.986Z,29.10
2023-02-06T00:12:40.551Z,25.57
2023-02-06T00:15:11.784Z,25.07
2023-02-06T00:17:40.940Z,23.17
2023-02-06T00:20:12.266Z,25.40
2023-02-06T00:22:41.447Z,24.13
2023-02-06T00:25:10.983Z,22.53
2023-02-06T00:27:40.057Z,30.53
2023-02-06T00:30:11.629Z,23.83
2023-02-06T00:32:40.950Z,28.10
2023-02-06T00:35:10.347Z,26.30
2023-02-06T00:37:39.963Z,26.33
2023-02-06T00:40:11.099Z,27.97
2023-02-06T00:42:40.273Z,26.43
2023-02-06T00:45:12.098Z,27.07
2023-02-06T00:47:41.535Z,26.73
2023-02-06T00:50:12.869Z,28.13
2023-02-06T00:52:42.090Z,28.17
2023-02-06T00:55:11.195Z,27.27
2023-02-06T00:57:40.370Z,26.27
2023-02-06T01:00:12.796Z,25.83
2023-02-06T01:02:42.367Z,24.70
2023-02-06T01:05:11.864Z,27.40
2023-02-06T01:07:41.453Z,32.60
2023-02-06T01:10:13.084Z,31.97
2023-02-06T01:12:42.845Z,32.87
2023-02-06T01:15:15.055Z,25.67
2023-02-06T01:17:44.409Z,24.07
2023-02-06T01:20:15.668Z,25.73
2023-02-06T01:22:44.652Z,25.47
2023-02-06T01:25:14.673Z,24.23
2023-02-06T01:27:44.073Z,25.90
2023-02-06T01:30:15.725Z,25.60
2023-02-06T01:32:45.494Z,24.33
2023-02-06T01:35:17.869Z,24.40
2023-02-06T01:37:47.249Z,23.87
2023-02-06T01:40:18.162Z,24.43
2023-02-06T01:42:47.259Z,24.43
2023-02-06T01:45:46.431Z,24.57
2023-02-06T01:48:21.009Z,23.93
2023-02-06T01:50:54.387Z,25.57
2023-02-06T01:53:25.358Z,26.07
2023-02-06T01:55:55.846Z,25.07
2023-02-06T01:58:29.143Z,25.27
2023-02-06T02:01:01.311Z,25.97
2023-02-06T02:03:32.749Z,25.13
2023-02-06T02:06:06.313Z,26.10
2023-02-06T02:08:38.931Z,24.60
2023-02-06T02:11:13.094Z,25.63
2023-02-06T02:13:42.233Z,26.47
2023-02-06T02:16:20.698Z,25.93
2023-02-06T02:19:02.791Z,26.00
2023-02-06T02:22:01.847Z,27.60
2023-02-06T02:24:58.549Z,27.37
2023-02-06T02:27:46.028Z,26.30
2023-02-06T02:30:52.646Z,27.10
2023-02-06T02:33:56.653Z,26.67
2023-02-06T02:36:31.420Z,26.43
2023-02-06T02:39:08.219Z,25.70
2023-02-06T02:41:44.678Z,25.93
2023-02-06T02:44:21.515Z,28.53
2023-02-06T02:46:54.006Z,26.80
2023-02-06T02:49:27.583Z,27.13
2023-02-06T02:51:59.585Z,26.63
2023-02-06T02:54:30.614Z,26.77
2023-02-06T02:57:07.005Z,26.70
2023-02-06T02:59:40.380Z,28.40
2023-02-06T03:02:13.924Z,27.70
2023-02-06T03:04:48.875Z,28.73
2023-02-06T03:07:32.130Z,30.17
2023-02-06T03:10:10.675Z,29.47
2023-02-06T03:12:46.077Z,30.03
2023-02-06T03:15:24.515Z,29.30
2023-02-06T03:18:01.309Z,29.17
2023-02-06T03:20:33.091Z,29.10
2023-02-06T03:23:06.806Z,27.97
2023-02-06T03:25:39.948Z,27.60
2023-02-06T03:28:15.581Z,28.23
2023-02-06T03:30:47.600Z,26.63
2023-02-06T03:33:19.693Z,26.77
2023-02-06T03:35:49.538Z,26.83
2023-02-06T03:38:20.091Z,27.33
2023-02-06T03:40:50.752Z,27.30
2023-02-06T03:43:22.594Z,26.47
2023-02-06T03:45:57.049Z,26.93
2023-02-06T03:48:33.105Z,28.40
2023-02-06T03:51:05.501Z,28.13
2023-02-06T03:53:38.445Z,27.90
2023-02-06T03:56:10.693Z,28.07
2023-02-06T03:58:40.050Z,28.30
2023-02-06T04:01:09.559Z,27.53
2023-02-06T04:03:38.674Z,28.00
2023-02-06T04:06:08.113Z,25.93
2023-02-06T04:08:38.528Z,26.70
2023-02-06T04:11:07.559Z,27.47
2023-02-06T04:13:36.699Z,25.27
2023-02-06T04:16:06.364Z,26.20
2023-02-06T04:18:35.233Z,24.80
2023-02-06T04:21:05.892Z,24.53
2023-02-06T04:23:35.466Z,23.10
2023-02-06T04:26:06.093Z,24.63
2023-02-06T04:28:35.231Z,23.97
2023-02-06T04:31:04.488Z,23.70
2023-02-06T04:33:33.661Z,23.77
2023-02-06T04:36:03.095Z,23.07
2023-02-06T04:38:32.074Z,26.03
2023-02-06T04:41:05.870Z,25.53
2023-02-06T04:43:35.276Z,27.77
2023-02-06T04:46:04.737Z,28.53
2023-02-06T04:48:33.801Z,28.97
2023-02-06T04:51:02.765Z,28.13
2023-02-06T04:53:31.902Z,27.67
2023-02-06T04:56:05.105Z,28.33
2023-02-06T04:58:34.863Z,27.27
2023-02-06T05:01:04.379Z,27.23
2023-02-06T05:03:33.677Z,27.57
2023-02-06T05:06:04.266Z,27.17
2023-02-06T05:08:33.463Z,26.17
2023-02-06T05:11:02.843Z,26.27
2023-02-06T05:13:34.121Z,27.70
2023-02-06T05:16:07.023Z,26.67
2023-02-06T05:18:36.249Z,26.47
2023-02-06T05:21:06.469Z,25.90
2023-02-06T05:23:35.542Z,26.17
2023-02-06T05:26:05.356Z,26.53
2023-02-06T05:28:35.724Z,26.70
2023-02-06T05:31:05.936Z,26.87
2023-02-06T05:33:35.270Z,25.57
2023-02-06T05:36:06.384Z,26.97
2023-02-06T05:38:35.878Z,26.43
2023-02-06T05:41:05.009Z,25.47
2023-02-06T05:43:35.897Z,27.40
2023-02-06T05:46:05.521Z,25.07
2023-02-06T05:48:35.235Z,25.67
2023-02-06T05:51:04.709Z,25.33
2023-02-06T05:53:33.629Z,25.40
2023-02-06T05:56:02.737Z,25.53
2023-02-06T05:58:32.139Z,25.63
2023-02-06T06:01:02.642Z,25.10
2023-02-06T06:03:33.488Z,25.87
2023-02-06T06:06:02.703Z,24.57
2023-02-06T06:08:32.308Z,24.17
2023-02-06T06:11:02.809Z,24.13
2023-02-06T06:13:31.954Z,24.70
2023-02-06T06:16:02.410Z,25.83
2023-02-06T06:18:31.613Z,23.47
2023-02-06T06:21:00.837Z,24.23
2023-02-06T06:23:30.071Z,23.93
2023-02-06T06:25:59.236Z,25.07
2023-02-06T06:28:28.171Z,24.03
2023-02-06T06:31:04.487Z,23.97
2023-02-06T06:33:34.000Z,23.93
2023-02-06T06:36:03.026Z,25.00
2023-02-06T06:38:32.348Z,24.53
2023-02-06T06:41:01.631Z,24.83
2023-02-06T06:43:31.054Z,25.77
2023-02-06T06:46:01.714Z,26.23
2023-02-06T06:48:33.070Z,26.37
2023-02-06T06:51:02.705Z,25.73
2023-02-06T06:53:31.778Z,25.07
2023-02-06T06:56:05.721Z,24.77
2023-02-06T06:58:35.140Z,25.70
2023-02-06T07:01:05.188Z,26.23
2023-02-06T07:03:36.647Z,25.77
2023-02-06T07:06:06.713Z,27.13
2023-02-06T07:08:41.655Z,26.23
2023-02-06T07:11:11.581Z,24.80
2023-02-06T07:13:40.694Z,25.00
2023-02-06T07:16:10.323Z,25.40
2023-02-06T07:18:41.866Z,25.63
2023-02-06T07:21:11.543Z,25.67
2023-02-06T07:23:40.715Z,26.27
2023-02-06T07:26:09.917Z,24.63
2023-02-06T07:28:39.058Z,25.90
2023-02-06T07:31:10.070Z,25.33
2023-02-06T07:33:40.639Z,24.87
2023-02-06T07:36:12.353Z,25.80
2023-02-06T07:38:42.473Z,25.57
2023-02-06T07:41:12.822Z,26.20
2023-02-06T07:43:41.889Z,25.43
2023-02-06T07:46:11.148Z,26.00
2023-02-06T07:48:42.568Z,25.23
2023-02-06T07:51:11.597Z,25.63
2023-02-06T07:53:41.013Z,26.83
2023-02-06T07:56:15.372Z,25.23
2023-02-06T07:58:44.855Z,23.63
2023-02-06T08:01:14.270Z,22.97
2023-02-06T08:03:45.017Z,23.20
2023-02-06T08:06:16.220Z,23.33
2023-02-06T08:08:46.320Z,22.53
2023-02-06T08:11:18.587Z,23.43
2023-02-06T08:13:50.700Z,22.83
2023-02-06T08:16:21.673Z,23.33
2023-02-06T08:18:52.700Z,22.57
2023-02-06T08:21:23.948Z,22.97
2023-02-06T08:23:57.405Z,22.20
2023-02-06T08:26:28.117Z,22.27
2023-02-06T08:28:58.461Z,22.17
2023-02-06T08:31:30.707Z,21.50
2023-02-06T08:34:02.108Z,22.30
2023-02-06T08:36:32.644Z,20.23
2023-02-06T08:39:02.847Z,21.20
2023-02-06T08:41:37.093Z,20.63
2023-02-06T08:44:09.068Z,20.37
2023-02-06T08:46:40.770Z,19.57
2023-02-06T08:49:17.198Z,19.63
2023-02-06T08:51:51.493Z,20.23
2023-02-06T08:54:24.970Z,18.80
2023-02-06T08:56:56.351Z,20.03
2023-02-06T08:59:25.356Z,19.77
2023-02-06T09:01:54.193Z,19.70
2023-02-06T09:04:24.829Z,19.43
2023-02-06T09:06:53.838Z,19.80
2023-02-06T09:09:23.090Z,19.63
2023-02-06T09:11:53.383Z,18.90
2023-02-06T09:14:23.105Z,19.10
2023-02-06T09:16:52.194Z,18.13
2023-02-06T09:19:21.484Z,18.37
2023-02-06T09:21:51.835Z,18.33
2023-02-06T09:24:21.152Z,19.03
2023-02-06T09:26:59.359Z,18.63
2023-02-06T09:29:31.570Z,19.40
2023-02-06T09:32:01.465Z,17.60
2023-02-06T09:34:30.279Z,18.43
2023-02-06T09:37:03.376Z,18.47
2023-02-06T09:39:33.377Z,19.20
2023-02-06T09:42:07.869Z,18.40
2023-02-06T09:44:42.982Z,18.67
2023-02-06T09:47:21.669Z,18.23
2023-02-06T09:49:54.544Z,18.17
2023-02-06T09:52:39.619Z,18.23
2023-02-06T09:55:15.744Z,17.50
2023-02-06T09:57:49.609Z,17.37
2023-02-06T10:00:32.442Z,18.17
2023-02-06T10:03:15.896Z,18.17
2023-02-06T10:05:51.059Z,17.87
2023-02-06T10:08:26.933Z,17.50
2023-02-06T10:10:57.522Z,17.67
2023-02-06T10:13:32.127Z,17.43
2023-02-06T10:16:06.311Z,17.17
2023-02-06T10:18:39.902Z,17.97
2023-02-06T10:21:32.713Z,18.17
2023-02-06T10:24:09.548Z,17.63
2023-02-06T10:26:41.368Z,17.57
2023-02-06T10:29:22.533Z,17.57
2023-02-06T10:32:12.480Z,17.57
2023-02-06T10:34:59.055Z,17.50
2023-02-06T10:37:53.785Z,18.30
2023-02-06T10:40:42.186Z,18.50
2023-02-06T10:43:18.274Z,17.40
2023-02-06T10:45:53.180Z,17.90
2023-02-06T10:48:29.407Z,17.63
2023-02-06T10:51:07.418Z,17.40
2023-02-06T10:53:39.609Z,17.53
2023-02-06T10:56:12.553Z,16.73
2023-02-06T10:58:46.704Z,17.60
2023-02-06T11:01:25.967Z,17.50
2023-02-06T11:04:01.093Z,17.53
2023-02-06T11:06:31.146Z,16.40
2023-02-06T11:09:00.325Z,17.43
2023-02-06T11:11:33.490Z,16.43
2023-02-06T11:14:07.349Z,17.40
2023-02-06T11:16:38.535Z,17.53
2023-02-06T11:19:16.906Z,16.73
2023-02-06T11:21:51.021Z,17.43
2023-02-06T11:24:22.909Z,17.30
2023-02-06T11:29:17.943Z,17.63
2023-02-06T11:31:50.751Z,17.67
2023-02-06T11:34:29.973Z,17.27
2023-02-06T11:37:01.484Z,17.60
2023-02-06T11:39:32.283Z,16.93
2023-02-06T11:42:05.537Z,17.00
2023-02-06T11:44:41.935Z,16.93
2023-02-06T11:47:33.293Z,16.80
2023-02-06T11:50:23.542Z,16.47
2023-02-06T11:52:59.947Z,15.90
2023-02-06T11:55:31.825Z,16.20
2023-02-06T11:58:07.758Z,16.10
2023-02-06T12:00:40.330Z,16.70
2023-02-06T12:03:30.626Z,16.83
2023-02-06T12:06:05.023Z,16.83
2023-02-06T12:08:45.044Z,16.60
2023-02-06T12:11:20.034Z,16.87
2023-02-06T12:13:53.482Z,17.87
2023-02-06T12:16:25.033Z,16.67
2023-02-06T12:18:57.381Z,17.33
2023-02-06T12:21:38.151Z,16.70
2023-02-06T12:24:22.179Z,17.20
2023-02-06T12:26:52.139Z,16.93
2023-02-06T12:29:25.689Z,17.47
2023-02-06T12:32:04.712Z,17.30
2023-02-06T12:34:46.300Z,17.90
2023-02-06T12:37:21.707Z,17.97
2023-02-06T12:39:53.085Z,17.23
2023-02-06T12:42:37.282Z,18.20
2023-02-06T12:45:15.687Z,17.90
2023-02-06T12:47:50.532Z,16.80
2023-02-06T12:50:26.264Z,17.30
2023-02-06T12:53:00.378Z,17.57
2023-02-06T12:55:32.838Z,17.30
2023-02-06T12:58:03.104Z,17.43
2023-02-06T13:00:46.287Z,17.57
2023-02-06T13:03:34.260Z,18.83
2023-02-06T13:06:13.500Z,17.50
2023-02-06T13:08:47.167Z,17.67
2023-02-06T13:11:31.917Z,17.37
2023-02-06T13:14:16.682Z,17.23
2023-02-06T13:16:50.892Z,17.53
2023-02-06T13:19:51.892Z,17.83
2023-02-06T13:22:45.235Z,17.77
2023-02-06T13:25:49.578Z,17.73
2023-02-06T13:28:46.736Z,18.20
2023-02-06T13:31:31.939Z,17.80
2023-02-06T13:34:15.181Z,18.07
2023-02-06T13:36:52.043Z,17.60
2023-02-06T13:39:31.098Z,18.33
2023-02-06T13:42:24.601Z,19.07
2023-02-06T13:44:54.402Z,18.47
2023-02-06T13:47:49.350Z,19.67
2023-02-06T13:50:36.299Z,19.37
2023-02-06T13:53:24.886Z,19.40
2023-02-06T13:56:06.078Z,20.03
2023-02-06T13:58:42.168Z,19.53
2023-02-06T14:01:19.953Z,19.80
2023-02-06T14:03:51.445Z,19.60
2023-02-06T14:06:52.737Z,19.83
2023-02-06T14:09:52.367Z,19.73
2023-02-06T14:12:33.289Z,20.00
2023-02-06T14:15:24.504Z,19.87
2023-02-06T14:18:07.608Z,21.13
2023-02-06T14:20:48.120Z,20.90
2023-02-06T14:23:29.415Z,19.07
2023-02-06T14:26:12.243Z,19.13
2023-02-06T14:28:50.029Z,19.27
2023-02-06T14:31:33.230Z,19.30
2023-02-06T14:34:27.118Z,19.40
2023-02-06T14:37:15.444Z,19.93
2023-02-06T14:39:49.501Z,20.03
2023-02-06T14:42:25.958Z,20.23
2023-02-06T14:45:00.840Z,19.53
2023-02-06T14:47:40.940Z,20.70
2023-02-06T14:50:20.884Z,20.80
2023-02-06T14:52:54.149Z,20.43
2023-02-06T14:55:31.002Z,18.20
2023-02-06T14:58:04.046Z,18.20
2023-02-06T15:00:33.992Z,17.83
2023-02-06T15:03:05.612Z,17.40
2023-02-06T15:05:35.507Z,17.00
2023-02-06T15:08:06.395Z,18.97
2023-02-06T15:10:38.683Z,18.53
2023-02-06T15:13:22.657Z,18.53
2023-02-06T15:15:56.872Z,18.27
2023-02-06T15:18:26.012Z,16.20
2023-02-06T15:20:57.139Z,16.20
2023-02-06T15:23:37.658Z,15.20
2023-02-06T15:26:32.085Z,16.20
2023-02-06T15:29:03.953Z,16.03
2023-02-06T15:31:33.285Z,16.40
2023-02-06T15:34:03.756Z,16.53
2023-02-06T15:36:34.804Z,16.47
2023-02-06T15:39:09.551Z,15.93
2023-02-06T15:41:40.551Z,15.77
2023-02-06T15:44:24.092Z,15.17
2023-02-06T15:46:55.089Z,14.27
2023-02-06T15:49:36.401Z,14.60
2023-02-06T15:52:06.680Z,14.13
2023-02-06T15:54:35.785Z,14.60
2023-02-06T15:57:08.466Z,13.90
2023-02-06T15:59:41.944Z,13.60
2023-02-06T16:02:22.760Z,14.10
2023-02-06T16:04:54.011Z,13.03
2023-02-06T16:07:27.520Z,12.27
2023-02-06T16:10:03.892Z,12.03
2023-02-06T16:12:35.256Z,13.40
2023-02-06T16:15:32.060Z,12.83
2023-02-06T16:18:03.123Z,12.13
2023-02-06T16:20:37.158Z,11.63
2023-02-06T16:23:28.689Z,11.70
2023-02-06T16:26:05.250Z,12.03
2023-02-06T16:28:41.517Z,11.87
2023-02-06T16:31:15.710Z,12.37
2023-02-06T16:33:46.394Z,11.57
2023-02-06T16:36:18.428Z,14.77
2023-02-06T16:38:57.688Z,17.37
2023-02-06T16:41:36.043Z,12.87
2023-02-06T16:44:08.583Z,13.23
2023-02-06T16:46:38.958Z,12.47
2023-02-06T16:49:12.882Z,13.27
2023-02-06T16:51:44.806Z,14.03
2023-02-06T16:54:20.303Z,14.07
2023-02-06T16:56:49.522Z,15.30
2023-02-06T16:59:18.669Z,14.67
2023-02-06T17:01:50.534Z,14.30
2023-02-06T17:04:19.644Z,12.50
2023-02-06T17:06:49.000Z,13.13
2023-02-06T17:09:19.807Z,13.83
2023-02-06T17:11:49.075Z,14.53
2023-02-06T17:14:18.903Z,12.70
2023-02-06T17:16:49.529Z,13.97
2023-02-06T17:19:18.900Z,15.00
2023-02-06T17:21:48.065Z,14.77
2023-02-06T17:24:18.359Z,12.93
2023-02-06T17:26:50.510Z,13.17
2023-02-06T17:29:19.888Z,12.57
2023-02-06T17:31:50.561Z,12.80
2023-02-06T17:34:19.761Z,12.43
2023-02-06T17:36:49.013Z,12.50
2023-02-06T17:39:18.131Z,12.67
2023-02-06T17:41:51.140Z,13.90
2023-02-06T17:44:20.686Z,13.60
2023-02-06T17:46:51.417Z,14.77
2023-02-06T17:49:20.655Z,13.80
2023-02-06T17:51:51.900Z,14.50
2023-02-06T17:54:21.231Z,13.30
2023-02-06T17:56:50.398Z,13.60
2023-02-06T17:59:19.816Z,13.10
2023-02-06T18:01:51.207Z,12.67
2023-02-06T18:04:21.376Z,13.17
2023-02-06T18:06:51.212Z,14.00
2023-02-06T18:09:21.424Z,13.37
2023-02-06T18:11:50.464Z,13.20
2023-02-06T18:14:20.838Z,12.60
2023-02-06T18:16:51.243Z,13.70
2023-02-06T18:19:24.795Z,12.47
2023-02-06T18:21:53.838Z,12.50
2023-02-06T18:24:22.909Z,12.40
2023-02-06T18:26:51.963Z,12.03
2023-02-06T18:29:20.996Z,12.80
2023-02-06T18:31:51.782Z,13.50
2023-02-06T18:34:20.954Z,14.50
2023-02-06T18:36:50.044Z,15.70
2023-02-06T18:39:19.169Z,13.33
2023-02-06T18:42:06.157Z,12.57
2023-02-06T18:44:41.631Z,12.20
2023-02-06T18:47:13.842Z,11.87
2023-02-06T18:49:43.411Z,11.87
2023-02-06T18:52:12.832Z,11.23
2023-02-06T18:54:42.470Z,11.73
2023-02-06T18:57:11.552Z,11.80
2023-02-06T18:59:40.857Z,11.83
2023-02-06T19:02:12.908Z,11.60
2023-02-06T19:04:41.957Z,12.57
2023-02-06T19:07:11.682Z,12.83
2023-02-06T19:09:41.832Z,13.43
2023-02-06T19:12:11.355Z,13.37
2023-02-06T19:14:40.610Z,14.40
2023-02-06T19:17:09.737Z,14.40
2023-02-06T19:19:40.920Z,15.00
2023-02-06T19:22:10.507Z,14.47
2023-02-06T19:24:43.644Z,14.43
2023-02-06T19:27:18.497Z,14.23
2023-02-06T19:29:48.727Z,15.03
2023-02-06T19:32:18.082Z,15.10
2023-02-06T19:34:48.513Z,15.23
2023-02-06T19:37:17.636Z,15.33
2023-02-06T19:39:47.070Z,14.27
2023-02-06T19:42:17.670Z,14.87
2023-02-06T19:44:46.964Z,15.03
2023-02-06T19:47:15.980Z,15.10
2023-02-06T19:49:45.183Z,15.47
2023-02-06T19:52:15.719Z,14.67
2023-02-06T19:54:44.833Z,15.20
2023-02-06T19:57:14.977Z,15.70
2023-02-06T19:59:44.402Z,14.80
2023-02-06T20:02:16.242Z,15.70
2023-02-06T20:04:46.303Z,15.30
2023-02-06T20:07:16.604Z,15.70
2023-02-06T20:09:45.612Z,15.53
2023-02-06T20:12:14.540Z,15.30
2023-02-06T20:14:45.854Z,15.60
2023-02-06T20:17:14.788Z,15.37
2023-02-06T20:19:43.866Z,16.13
2023-02-06T20:22:16.316Z,15.73
2023-02-06T20:24:45.655Z,15.40
2023-02-06T20:27:15.097Z,15.80
2023-02-06T20:29:45.803Z,15.90
2023-02-06T20:32:16.453Z,16.23
2023-02-06T20:34:45.415Z,15.23
2023-02-06T20:37:17.633Z,15.37
2023-02-06T20:39:47.128Z,15.90
2023-02-06T20:42:16.534Z,16.10
2023-02-06T20:44:45.520Z,15.83
2023-02-06T20:47:14.354Z,15.87
2023-02-06T20:49:43.278Z,16.27
2023-02-06T20:52:12.670Z,15.87
2023-02-06T20:54:43.152Z,16.63
2023-02-06T20:57:12.082Z,17.07
2023-02-06T20:59:41.296Z,15.90
2023-02-06T21:02:11.153Z,16.20
2023-02-06T21:04:40.238Z,16.20
2023-02-06T21:07:09.465Z,17.30
2023-02-06T21:09:38.365Z,17.60
2023-02-06T21:12:08.798Z,17.67
2023-02-06T21:14:37.823Z,18.07
2023-02-06T21:17:06.808Z,16.63
2023-02-06T21:19:36.102Z,17.80
2023-02-06T21:22:05.103Z,17.70
2023-02-06T21:24:34.373Z,16.80
2023-02-06T21:27:03.674Z,17.07
2023-02-06T21:29:34.365Z,17.13
2023-02-06T21:32:13.038Z,18.23
2023-02-06T21:34:42.625Z,17.00
2023-02-06T21:37:11.626Z,17.30
2023-02-06T21:39:41.403Z,17.77
2023-02-06T21:42:11.416Z,18.00
2023-02-06T21:44:42.023Z,17.70
2023-02-06T21:47:10.895Z,18.57
2023-02-06T21:49:39.797Z,18.40
2023-02-06T21:52:08.796Z,17.47
2023-02-06T21:54:38.055Z,18.10
2023-02-06T21:57:06.834Z,17.40
2023-02-06T21:59:37.907Z,17.90
2023-02-06T22:02:10.122Z,17.83
2023-02-06T22:04:39.285Z,17.63
2023-02-06T22:07:11.464Z,18.07
2023-02-06T22:09:40.833Z,17.40
2023-02-06T22:12:15.311Z,17.20
2023-02-06T22:14:44.588Z,16.80
2023-02-06T22:17:14.819Z,17.13
2023-02-06T22:19:43.758Z,16.83
2023-02-06T22:22:12.593Z,16.47
2023-02-06T22:24:44.083Z,16.77
2023-02-06T22:27:13.063Z,17.57
2023-02-06T22:29:42.305Z,18.13
2023-02-06T22:32:11.234Z,18.33
2023-02-06T22:34:41.691Z,17.40
2023-02-06T22:37:10.681Z,17.13
2023-02-06T22:39:39.742Z,17.73
2023-02-06T22:42:08.766Z,17.67
2023-02-06T22:44:38.164Z,17.93
2023-02-06T22:47:07.228Z,18.27
2023-02-06T22:49:36.585Z,19.17
2023-02-06T22:52:27.037Z,18.97
2023-02-06T22:54:56.692Z,19.73
2023-02-06T22:57:27.574Z,19.93
2023-02-06T22:59:56.639Z,19.60
2023-02-06T23:02:25.634Z,19.30
2023-02-06T23:04:54.968Z,19.33
2023-02-06T23:07:25.265Z,19.53
2023-02-06T23:09:54.454Z,20.47
2023-02-06T23:12:23.442Z,19.80
2023-02-06T23:14:52.558Z,21.07
2023-02-06T23:17:21.662Z,20.50
2023-02-06T23:19:51.115Z,19.77
2023-02-06T23:22:20.346Z,20.50
2023-02-06T23:24:52.685Z,20.47
2023-02-06T23:27:22.445Z,19.97
2023-02-06T23:29:51.691Z,19.73
2023-02-06T23:32:20.558Z,19.90
2023-02-06T23:34:49.657Z,21.17
2023-02-06T23:37:18.521Z,20.53
2023-02-06T23:39:47.518Z,20.23
2023-02-06T23:42:17.940Z,21.13
2023-02-06T23:44:49.848Z,20.63
2023-02-06T23:47:19.731Z,21.20
2023-02-06T23:49:55.668Z,20.90
2023-02-06T23:52:25.357Z,20.73
2023-02-06T23:54:57.642Z,21.50
2023-02-06T23:57:30.563Z,21.17
2023-02-06T23:59:59.538Z,21.30
